Time;durP1;ratioP1;P1;durP2;ratioP2;P2;SDS_P1;SDS_P2;PMS_P1;PMS_P2;Temp;Humidity;BMP_temperature;BMP_pressure;BME280_temperature;BME280_humidity;BME280_pressure;Samples;Min_cycle;Max_cycle;Signal;HPM_P1;HPM_P2
2023/10/07 00:04:30;;;;;;;12.68;5.88;;;;;;;28.15;56.45;101182.38;21083601;28;20040;-64
2023/10/07 00:14:33;;;;;;;14.60;6.40;;;;;;;28.15;56.32;101176.75;21147423;28;20024;-65
2023/10/07 00:24:42;;;;;;;14.85;5.13;;;;;;;28.15;56.11;101176.75;21164657;28;20433;-65
2023/10/07 00:34:44;;;;;;;11.02;5.82;;;;;;;28.15;56.56;101170.31;21164004;28;20040;-63
2023/10/07 00:44:53;;;;;;;10.60;5.72;;;;;;;28.14;56.10;101175.09;21163268;28;20060;-63
2023/10/07 00:55:25;;;;;;;13.60;6.15;;;;;;;28.11;55.90;101153.22;21159985;28;20036;-65
2023/10/07 01:05:26;;;;;;;11.02;5.97;;;;;;;28.15;56.26;101171.13;21161762;28;20040;-64
2023/10/07 01:15:34;;;;;;;16.60;6.00;;;;;;;28.12;56.15;101154.88;21158520;28;20043;-66
2023/10/07 01:25:37;;;;;;;12.85;6.30;;;;;;;27.85;56.41;101113.75;21156129;27;20052;-65
2023/10/07 01:35:39;;;;;;;9.85;5.60;;;;;;;28.13;56.16;101156.53;21152262;28;20035;-65
2023/10/07 01:45:41;;;;;;;14.13;6.53;;;;;;;28.09;56.36;101133.06;21153994;28;20043;-65
2023/10/07 01:55:45;;;;;;;12.73;6.57;;;;;;;28.04;57.17;101139.66;21147688;28;20043;-65
2023/10/07 02:05:48;;;;;;;12.68;6.32;;;;;;;28.04;56.87;101130.34;21162964;28;20086;-64
2023/10/07 02:15:52;;;;;;;12.30;6.20;;;;;;;28.02;56.17;101118.63;21176549;28;20444;-64
2023/10/07 02:25:57;;;;;;;18.48;5.97;;;;;;;28.00;57.13;101118.13;21172255;28;20036;-64
2023/10/07 02:35:59;;;;;;;14.13;6.47;;;;;;;27.93;57.01;101084.00;21174941;28;20039;-64
2023/10/07 02:46:08;;;;;;;12.77;6.18;;;;;;;28.03;56.41;101090.16;21159208;28;20039;-63
2023/10/07 02:56:18;;;;;;;15.25;6.55;;;;;;;28.02;56.51;101087.66;21088520;28;20054;-64
2023/10/07 03:06:20;;;;;;;15.70;5.90;;;;;;;28.04;56.45;101077.75;21158492;28;20563;-65
2023/10/07 03:26:23;;;;;;;15.07;5.47;;;;;;;28.06;56.33;101050.13;21156535;28;20086;-63
2023/10/07 03:36:40;;;;;;;11.85;5.38;;;;;;;28.04;56.55;101045.97;21159671;28;20039;-64
2023/10/07 03:46:42;;;;;;;10.05;4.90;;;;;;;28.07;55.96;101042.50;21133271;28;20085;-65
2023/10/07 03:56:43;;;;;;;11.77;5.53;;;;;;;28.06;56.02;101021.16;21114597;28;20101;-66
2023/10/07 04:06:47;;;;;;;14.10;6.22;;;;;;;28.06;56.32;101015.53;21083039;28;20032;-64
2023/10/07 04:17:03;;;;;;;12.02;5.07;;;;;;;28.03;56.26;100991.69;21118898;28;20044;-65
2023/10/07 04:27:06;;;;;;;7.87;5.07;;;;;;;28.05;56.11;100982.94;21080204;28;20044;-64
2023/10/07 05:07:50;;;;;;;11.55;5.18;;;;;;;28.01;56.77;100917.25;21139492;28;20039;-64
2023/10/07 05:17:54;;;;;;;14.63;5.35;;;;;;;27.99;56.84;100908.31;21119655;28;20043;-64
2023/10/07 05:27:56;;;;;;;10.52;5.47;;;;;;;28.00;56.56;100904.34;21110404;28;20041;-64
2023/10/07 05:37:59;;;;;;;12.05;4.97;;;;;;;27.92;56.97;100885.47;21095842;28;20039;-64
2023/10/07 05:48:01;;;;;;;11.27;5.45;;;;;;;27.92;56.47;100875.06;21156563;28;20043;-64
2023/10/07 05:58:05;;;;;;;13.32;5.40;;;;;;;27.88;56.78;100874.06;21159505;28;20043;-63
2023/10/07 06:08:10;;;;;;;12.35;5.38;;;;;;;27.93;56.47;100847.75;21115183;28;20379;-64
2023/10/07 06:18:12;;;;;;;13.98;5.20;;;;;;;27.95;56.48;100837.00;21086995;28;20517;-65
2023/10/07 06:28:21;;;;;;;13.40;5.20;;;;;;;27.89;56.54;100818.63;21143848;28;20043;-65
2023/10/07 06:38:26;;;;;;;10.95;5.00;;;;;;;27.81;56.76;100801.47;21157641;28;20416;-64
2023/10/07 06:48:33;;;;;;;12.05;4.47;;;;;;;27.81;56.71;100806.22;21142801;28;20552;-65
2023/10/07 06:58:35;;;;;;;9.07;5.30;;;;;;;27.84;56.40;100795.16;21172168;28;20394;-63
2023/10/07 07:08:37;;;;;;;8.15;4.28;;;;;;;27.80;56.66;100777.28;21171653;28;20043;-65
2023/10/07 07:18:40;;;;;;;10.90;5.38;;;;;;;27.80;56.57;100771.66;21159917;28;20069;-64
2023/10/07 07:28:44;;;;;;;8.60;5.00;;;;;;;27.83;56.18;100764.56;21156604;28;20108;-64
2023/10/07 07:38:46;;;;;;;7.05;4.18;;;;;;;27.79;56.64;100757.94;21167477;28;20048;-64
2023/10/07 07:48:48;;;;;;;7.22;4.30;;;;;;;27.80;56.46;100749.16;21166521;28;20100;-65
2023/10/07 07:58:49;;;;;;;11.57;5.35;;;;;;;27.83;56.37;100747.69;21163189;28;20043;-65
2023/10/07 08:08:53;;;;;;;9.75;4.50;;;;;;;27.74;56.39;100733.63;21159509;28;20039;-63
2023/10/07 08:18:57;;;;;;;9.85;4.18;;;;;;;27.75;56.24;100740.91;21161790;28;20426;-63
2023/10/07 08:28:59;;;;;;;9.25;4.15;;;;;;;27.77;56.09;100727.38;21162364;28;20069;-64
2023/10/07 08:39:05;;;;;;;7.95;4.20;;;;;;;27.80;56.25;100717.41;21119473;28;20471;-64
2023/10/07 08:49:15;;;;;;;13.40;4.97;;;;;;;27.76;56.01;100703.19;21142449;28;20044;-65
2023/10/07 08:59:22;;;;;;;9.63;4.68;;;;;;;27.70;55.96;100687.63;21081800;28;20399;-64
2023/10/07 09:09:32;;;;;;;;;;;;;;;27.70;55.74;100682.00;21101845;28;20066;-64
2023/10/07 09:19:34;;;;;;;9.65;3.88;;;;;;;27.71;55.66;100689.28;21078231;28;19916;-64
2023/10/07 09:29:38;;;;;;;9.10;4.15;;;;;;;27.67;55.76;100677.03;21115154;28;20066;-64
2023/10/07 09:39:45;;;;;;;7.38;3.75;;;;;;;27.59;55.76;100669.47;21154134;28;20444;-64
2023/10/07 09:49:46;;;;;;;5.80;3.67;;;;;;;27.64;56.00;100669.31;21158584;28;20048;-64
2023/10/07 09:59:56;;;;;;;7.18;3.92;;;;;;;27.59;55.94;100658.25;21112972;28;20375;-63
2023/10/07 10:10:06;;;;;;;6.35;4.10;;;;;;;27.65;55.70;100656.06;21160048;28;20108;-64
2023/10/07 10:20:16;;;;;;;8.68;3.88;;;;;;;27.43;55.45;100610.13;21165865;28;20051;-64
2023/10/07 10:30:23;;;;;;;8.38;4.53;;;;;;;27.48;55.83;100626.81;21175528;28;20391;-65
2023/10/07 10:40:31;;;;;;;5.82;3.83;;;;;;;27.51;55.73;100623.34;21174825;28;20092;-64
2023/10/07 10:50:33;;;;;;;8.68;4.40;;;;;;;27.49;55.95;100602.34;21164277;28;20051;-63
2023/10/07 11:00:48;;;;;;;9.57;4.85;;;;;;;27.41;55.93;100594.78;21170528;28;20559;-65
2023/10/07 11:11:10;;;;;;;7.55;4.63;;;;;;;27.34;55.92;100600.91;21127553;28;20444;-63
2023/10/07 11:21:18;;;;;;;10.98;5.28;;;;;;;27.36;56.50;100599.44;21114149;28;20097;-64
2023/10/07 11:31:30;;;;;;;13.32;5.60;;;;;;;27.38;57.29;100601.06;21085006;28;20391;-63
2023/10/07 11:41:32;;;;;;;16.45;7.15;;;;;;;27.45;58.97;100602.22;21116563;28;20339;-64
2023/10/07 11:51:34;;;;;;;20.27;6.60;;;;;;;27.46;58.86;100592.63;21113467;27;20040;-63
2023/10/07 12:01:35;;;;;;;20.30;6.88;;;;;;;27.49;58.42;100603.22;21152514;28;20054;-65
2023/10/07 12:11:36;;;;;;;13.57;5.82;;;;;;;27.50;58.41;100609.66;21100465;28;20039;-65
2023/10/07 12:21:42;;;;;;;15.88;6.60;;;;;;;27.49;58.19;100603.22;21087654;28;20040;-65
2023/10/07 12:31:45;;;;;;;11.83;6.27;;;;;;;27.47;57.92;100587.81;21080770;28;20043;-67
2023/10/07 12:41:47;;;;;;;14.88;6.00;;;;;;;27.53;57.87;100592.09;21078843;28;20056;-65
2023/10/07 12:51:48;;;;;;;15.45;5.72;;;;;;;27.55;57.60;100601.03;21079760;28;20620;-66
2023/10/07 13:01:59;;;;;;;10.05;5.53;;;;;;;27.53;57.42;100592.91;21078918;28;20069;-65
2023/10/07 13:12:12;;;;;;;9.65;5.75;;;;;;;27.58;57.11;100577.88;21079066;28;20040;-66
2023/10/07 13:22:13;;;;;;;10.68;5.80;;;;;;;27.61;57.22;100554.72;21077514;28;20040;-66
2023/10/07 13:32:15;;;;;;;10.60;5.43;;;;;;;27.56;56.81;100536.06;21077268;28;20048;-65
2023/10/07 13:42:17;;;;;;;10.25;5.47;;;;;;;27.64;56.93;100531.56;21076826;28;20048;-66
2023/10/07 13:52:21;;;;;;;9.27;5.43;;;;;;;27.66;56.81;100522.78;21081059;28;20093;-65
2023/10/07 14:02:27;;;;;;;11.10;6.25;;;;;;;27.67;56.62;100519.63;21096088;28;20047;-65
2023/10/07 14:12:28;;;;;;;8.13;5.47;;;;;;;27.69;56.39;100508.88;21093507;28;20048;-65
2023/10/07 14:22:29;;;;;;;7.00;5.95;;;;;;;27.68;56.22;100518.50;21091121;28;20545;-66
2023/10/07 14:32:31;;;;;;;8.30;6.45;;;;;;;27.71;56.59;100537.47;21088422;28;20090;-65
2023/10/07 14:42:32;;;;;;;7.72;6.03;;;;;;;27.73;55.83;100535.19;21089308;28;20086;-65
2023/10/07 14:52:34;;;;;;;4.60;3.63;;;;;;;27.74;53.63;100536.84;21090480;28;20093;-65
2023/10/07 15:02:35;;;;;;;6.50;3.10;;;;;;;27.74;52.35;100513.53;21094783;28;20051;-65
2023/10/07 15:12:38;;;;;;;4.30;3.28;;;;;;;27.75;51.61;100499.13;21090735;28;20036;-66
2023/10/07 15:22:39;;;;;;;2.90;2.60;;;;;;;27.74;50.88;100508.72;21086394;28;20040;-66
2023/10/07 15:32:44;;;;;;;4.15;2.53;;;;;;;27.72;50.49;100511.06;21085622;28;20105;-65
2023/10/07 15:42:57;;;;;;;3.92;3.15;;;;;;;27.72;50.31;100527.94;21084940;28;20048;-65
2023/10/07 15:52:59;;;;;;;2.67;2.15;;;;;;;27.70;49.31;100541.47;21084106;28;20047;-64
2023/10/07 16:03:03;;;;;;;2.60;2.40;;;;;;;27.68;48.83;100546.59;21083480;28;20048;-66
2023/10/07 16:13:08;;;;;;;4.85;2.10;;;;;;;27.56;47.68;100538.84;21082303;28;20487;-65
2023/10/07 16:23:09;;;;;;;2.10;1.52;;;;;;;27.63;46.84;100558.03;21082541;28;20028;-65
2023/10/07 16:33:10;;;;;;;1.80;1.58;;;;;;;27.59;45.49;100541.00;21081388;28;20036;-65
2023/10/07 16:43:14;;;;;;;2.65;1.83;;;;;;;27.58;45.89;100555.38;21079814;28;20056;-65
2023/10/07 16:53:15;;;;;;;3.00;1.90;;;;;;;27.56;46.03;100569.78;21080450;28;20036;-65
2023/10/07 17:03:17;;;;;;;2.58;1.83;;;;;;;27.53;46.04;100570.44;21079716;28;20105;-66
2023/10/07 17:13:18;;;;;;;3.25;2.05;;;;;;;27.52;46.18;100548.31;21077481;28;20052;-67
2023/10/07 17:23:20;;;;;;;4.00;2.10;;;;;;;27.48;46.09;100497.56;21077876;28;20032;-66
2023/10/07 17:33:21;;;;;;;2.10;1.90;;;;;;;27.46;45.58;100501.88;21076836;28;20433;-65
2023/10/07 17:43:23;;;;;;;1.98;1.70;;;;;;;27.45;45.59;100483.38;21076382;28;20040;-65
2023/10/07 17:53:24;;;;;;;2.40;1.70;;;;;;;27.43;45.32;100489.31;21075599;28;20091;-66
2023/10/07 18:03:26;;;;;;;2.47;1.75;;;;;;;27.42;45.17;100465.19;21077304;28;20097;-64
2023/10/07 18:13:28;;;;;;;2.00;1.60;;;;;;;27.39;44.99;100474.28;21074984;28;20051;-65
2023/10/07 18:23:29;;;;;;;2.70;1.88;;;;;;;27.35;45.10;100457.28;21073749;28;20039;-64
2023/10/07 18:33:31;;;;;;;1.70;1.60;;;;;;;27.36;45.11;100470.19;21073702;28;20036;-66
2023/10/07 18:43:33;;;;;;;2.05;1.52;;;;;;;27.33;44.86;100459.59;21085603;28;20048;-66
2023/10/07 18:53:34;;;;;;;3.42;1.85;;;;;;;27.32;44.97;100434.66;21089675;28;20479;-64
2023/10/07 19:03:37;;;;;;;2.25;1.60;;;;;;;27.28;45.04;100431.69;21088220;28;20044;-65
2023/10/07 19:13:40;;;;;;;2.58;1.75;;;;;;;27.25;45.10;100412.69;21087181;28;20487;-65
2023/10/07 19:23:41;;;;;;;3.33;1.67;;;;;;;27.26;45.32;100420.00;21086018;28;20482;-65
2023/10/07 19:33:46;;;;;;;1.88;1.42;;;;;;;27.26;45.56;100469.69;21085169;28;20036;-64
2023/10/07 19:43:52;;;;;;;1.90;1.48;;;;;;;27.27;45.47;100458.16;21084418;28;20044;-65
2023/10/07 19:53:53;;;;;;;2.33;1.70;;;;;;;27.23;45.42;100465.59;21082970;28;20044;-65
2023/10/07 20:03:55;;;;;;;1.50;1.17;;;;;;;27.23;45.04;100468.41;21083283;28;20044;-65
2023/10/07 20:13:56;;;;;;;1.75;1.40;;;;;;;27.18;44.83;100467.78;21082145;28;20443;-65
2023/10/07 20:23:57;;;;;;;4.10;1.48;;;;;;;27.19;44.74;100469.41;21082274;28;20364;-65
2023/10/07 20:33:59;;;;;;;2.15;1.50;;;;;;;27.17;44.24;100478.19;21081559;28;20036;-65
2023/10/07 20:44:00;;;;;;;1.60;1.20;;;;;;;27.15;43.84;100480.47;21080510;28;20048;-66
2023/10/07 20:54:02;;;;;;;1.20;1.10;;;;;;;27.12;43.48;100461.47;21080680;28;20040;-65
2023/10/07 21:04:04;;;;;;;2.08;1.10;;;;;;;27.14;43.30;100470.41;21078260;28;20044;-65
2023/10/07 21:14:05;;;;;;;1.65;1.30;;;;;;;27.13;43.00;100465.97;21078783;28;20032;-65
2023/10/07 21:24:07;;;;;;;3.33;1.48;;;;;;;27.13;43.12;100482.00;21078114;28;20441;-67
2023/10/07 21:34:09;;;;;;;1.52;1.42;;;;;;;27.13;43.11;100482.81;21077649;28;20044;-65
2023/10/07 21:44:11;;;;;;;2.40;1.10;;;;;;;27.12;42.87;100481.13;21076974;28;20078;-64
2023/10/07 21:54:12;;;;;;;1.17;1.02;;;;;;;26.64;42.93;100414.00;21075135;28;20036;-64
2023/10/07 22:04:13;;;;;;;1.67;1.38;;;;;;;27.10;42.79;100489.09;21075921;28;20048;-64
2023/10/07 22:14:15;;;;;;;8.77;1.15;;;;;;;27.00;42.84;100500.66;21081955;28;20040;-69
2023/10/07 22:24:17;;;;;;;1.95;1.58;;;;;;;27.08;43.03;100513.84;21092421;28;20089;-66
2023/10/07 22:34:21;;;;;;;1.75;1.20;;;;;;;27.07;42.70;100512.19;21091725;28;20082;-65
2023/10/07 22:44:24;;;;;;;2.03;1.42;;;;;;;26.98;42.49;100498.16;21091637;28;20058;-65
2023/10/07 22:54:32;;;;;;;3.20;1.77;;;;;;;27.01;42.57;100513.53;21090644;28;20043;-65
2023/10/07 23:04:39;;;;;;;1.92;1.40;;;;;;;27.01;42.49;100513.53;21088234;28;20410;-65
2023/10/07 23:14:44;;;;;;;2.67;1.50;;;;;;;26.99;42.67;100525.09;21087504;28;20040;-65
2023/10/07 23:24:51;;;;;;;1.50;1.40;;;;;;;26.87;42.99;100516.50;21086048;28;20036;-65
2023/10/07 23:35:11;;;;;;;;;;;;;;;26.94;42.73;100518.81;21087418;28;20190;-65
2023/10/07 23:45:13;;;;;;;3.28;1.65;;;;;;;26.98;42.85;100522.59;21085982;28;19912;-65
2023/10/07 23:55:27;;;;;;;1.85;1.42;;;;;;;26.92;43.04;100523.94;21084370;28;20399;-65
